createdAt,value
2018-04-30T00:00:35.987Z,99.90
2018-04-30T00:03:02.174Z,99.90
2018-04-30T00:05:29.460Z,99.90
2018-04-30T00:07:55.627Z,99.90
2018-04-30T00:12:51.100Z,99.90
2018-04-30T00:15:17.271Z,99.90
2018-04-30T00:17:43.478Z,99.90
2018-04-30T00:20:09.643Z,99.90
2018-04-30T00:22:35.902Z,99.90
2018-04-30T00:25:02.370Z,99.90
2018-04-30T00:27:30.987Z,99.90
2018-04-30T00:29:59.646Z,99.90
2018-04-30T00:32:25.867Z,99.90
2018-04-30T00:34:52.034Z,99.90
2018-04-30T00:37:18.218Z,99.90
2018-04-30T00:39:44.569Z,99.90
2018-04-30T00:42:10.730Z,99.90
2018-04-30T00:44:36.886Z,99.90
2018-04-30T00:47:03.063Z,99.90
2018-04-30T00:49:29.275Z,99.90
2018-04-30T00:51:55.452Z,99.90
2018-04-30T00:54:35.151Z,99.90
2018-04-30T00:57:01.308Z,99.90
2018-04-30T00:59:28.614Z,99.90
2018-04-30T01:01:54.852Z,99.90
2018-04-30T01:04:21.046Z,99.90
2018-04-30T01:06:47.234Z,99.90
2018-04-30T01:09:13.423Z,99.90
2018-04-30T01:11:39.606Z,99.90
2018-04-30T01:14:07.442Z,99.90
2018-04-30T01:16:33.616Z,99.90
2018-04-30T01:18:59.778Z,99.90
2018-04-30T01:21:27.171Z,99.90
2018-04-30T01:23:53.366Z,99.90
2018-04-30T01:26:19.527Z,99.90
2018-04-30T01:28:45.818Z,99.90
2018-04-30T01:31:11.983Z,99.90
2018-04-30T01:33:38.138Z,99.90
2018-04-30T01:36:04.319Z,99.90
2018-04-30T01:38:31.544Z,99.90
2018-04-30T01:40:58.829Z,99.90
2018-04-30T01:43:25.007Z,99.90
2018-04-30T01:45:51.179Z,99.90
2018-04-30T01:48:17.362Z,99.90
2018-04-30T01:50:43.558Z,99.90
2018-04-30T01:53:09.714Z,99.90
2018-04-30T01:55:35.897Z,99.90
2018-04-30T01:58:02.125Z,99.90
2018-04-30T02:00:28.281Z,99.90
2018-04-30T02:02:55.577Z,99.90
2018-04-30T02:05:21.795Z,99.90
2018-04-30T02:07:47.959Z,99.90
2018-04-30T02:10:14.149Z,99.90
2018-04-30T02:12:41.482Z,99.90
2018-04-30T02:15:07.665Z,99.90
2018-04-30T02:17:33.814Z,99.90
2018-04-30T02:19:59.986Z,99.90
2018-04-30T02:22:26.149Z,99.90
2018-04-30T02:24:53.434Z,99.90
2018-04-30T02:27:19.615Z,99.90
2018-04-30T02:29:45.790Z,99.90
2018-04-30T02:32:12.000Z,99.90
2018-04-30T02:34:38.170Z,99.90
2018-04-30T02:37:04.343Z,99.90
2018-04-30T02:39:34.012Z,99.90
2018-04-30T02:42:02.444Z,99.90
2018-04-30T02:44:30.936Z,99.90
2018-04-30T02:46:59.371Z,99.90
2018-04-30T02:49:25.568Z,99.90
2018-04-30T02:51:51.814Z,99.90
2018-04-30T02:54:18.015Z,99.90
2018-04-30T02:56:44.217Z,99.90
2018-04-30T02:59:10.395Z,99.90
2018-04-30T03:01:36.563Z,99.90
2018-04-30T03:04:02.772Z,99.90
2018-04-30T03:06:28.956Z,99.90
2018-04-30T03:08:55.228Z,99.90
2018-04-30T03:11:21.431Z,99.90
2018-04-30T03:13:47.598Z,99.90
2018-04-30T03:16:13.902Z,99.90
2018-04-30T03:18:40.090Z,99.90
2018-04-30T03:21:06.270Z,99.90
2018-04-30T03:23:32.674Z,99.90
2018-04-30T03:25:59.011Z,99.90
2018-04-30T03:28:25.188Z,99.90
2018-04-30T03:30:51.391Z,99.90
2018-04-30T03:35:46.631Z,99.90
2018-04-30T03:38:12.923Z,99.90
2018-04-30T03:40:39.091Z,99.90
2018-04-30T03:43:05.264Z,99.90
2018-04-30T03:45:31.463Z,99.90
2018-04-30T03:47:57.631Z,99.90
2018-04-30T03:50:23.804Z,99.90
2018-04-30T03:52:50.004Z,99.90
2018-04-30T03:55:16.287Z,99.90
2018-04-30T03:57:43.937Z,99.90
2018-04-30T04:00:23.446Z,99.90
2018-04-30T04:03:01.866Z,99.90
2018-04-30T04:05:40.391Z,99.90
2018-04-30T04:08:06.554Z,99.90
2018-04-30T04:10:32.715Z,99.90
2018-04-30T04:12:58.896Z,99.90
2018-04-30T04:15:26.182Z,99.90
2018-04-30T04:17:52.563Z,99.90
2018-04-30T04:20:18.743Z,99.90
2018-04-30T04:22:44.926Z,99.90
2018-04-30T04:25:11.078Z,99.90
2018-04-30T04:27:37.250Z,99.90
2018-04-30T04:30:03.412Z,99.90
2018-04-30T04:32:30.802Z,99.90
2018-04-30T04:34:57.038Z,99.90
2018-04-30T04:37:23.238Z,99.90
2018-04-30T04:39:49.386Z,99.90
2018-04-30T04:42:16.701Z,99.90
2018-04-30T04:44:42.897Z,99.90
2018-04-30T04:47:09.431Z,99.90
2018-04-30T04:49:35.601Z,99.90
2018-04-30T04:52:01.771Z,99.90
2018-04-30T04:54:27.943Z,99.90
2018-04-30T04:56:54.102Z,99.90
2018-04-30T04:59:20.369Z,99.90
2018-04-30T05:01:46.550Z,99.90
2018-04-30T05:04:13.939Z,99.90
2018-04-30T05:06:40.106Z,99.90
2018-04-30T05:11:34.209Z,99.90
2018-04-30T05:14:00.431Z,99.90
2018-04-30T05:16:26.702Z,99.90
2018-04-30T05:18:53.975Z,99.90
2018-04-30T05:21:20.259Z,99.90
2018-04-30T05:26:14.941Z,99.90
2018-04-30T05:28:41.106Z,99.90
2018-04-30T05:31:07.313Z,99.90
2018-04-30T05:33:33.476Z,99.90
2018-04-30T05:35:59.638Z,99.90
2018-04-30T05:38:25.818Z,99.90
2018-04-30T05:40:52.107Z,99.90
2018-04-30T05:43:18.359Z,99.90
2018-04-30T05:45:46.974Z,99.90
2018-04-30T05:48:14.291Z,99.90
2018-04-30T05:50:40.651Z,99.90
2018-04-30T05:53:06.934Z,99.90
2018-04-30T05:55:33.175Z,99.90
2018-04-30T05:58:00.887Z,99.90
2018-04-30T06:00:27.133Z,99.90
2018-04-30T06:02:53.545Z,99.90
2018-04-30T06:07:47.707Z,99.90
2018-04-30T06:10:13.882Z,99.90
2018-04-30T06:12:40.068Z,99.90
2018-04-30T06:15:06.299Z,99.90
2018-04-30T06:17:33.658Z,99.90
2018-04-30T06:19:59.919Z,99.90
2018-04-30T06:22:27.442Z,99.90
2018-04-30T06:24:53.839Z,99.90
2018-04-30T06:27:21.128Z,99.90
2018-04-30T06:29:47.519Z,99.90
2018-04-30T06:32:14.168Z,99.90
2018-04-30T06:34:40.454Z,99.90
2018-04-30T06:37:06.952Z,99.90
2018-04-30T06:39:33.556Z,99.90
2018-04-30T06:41:59.969Z,99.90
2018-04-30T06:44:26.639Z,99.90
2018-04-30T06:46:52.939Z,99.90
2018-04-30T06:49:19.173Z,99.90
2018-04-30T06:51:46.546Z,99.90
2018-04-30T06:54:19.702Z,99.90
2018-04-30T06:56:47.173Z,99.90
2018-04-30T06:59:13.770Z,99.90
2018-04-30T07:04:07.945Z,99.90
2018-04-30T07:06:35.655Z,99.90
2018-04-30T07:09:01.882Z,99.90
2018-04-30T07:11:28.060Z,99.90
2018-04-30T07:13:54.245Z,99.90
2018-04-30T07:16:20.701Z,99.90
2018-04-30T07:18:46.914Z,99.90
2018-04-30T07:21:13.263Z,99.90
2018-04-30T07:23:40.874Z,99.90
2018-04-30T07:26:07.337Z,99.90
2018-04-30T07:28:33.674Z,99.90
2018-04-30T07:31:00.061Z,99.90
2018-04-30T07:33:26.358Z,99.90
2018-04-30T07:35:52.664Z,99.90
2018-04-30T07:38:18.854Z,99.90
2018-04-30T07:40:45.245Z,99.90
2018-04-30T07:43:11.482Z,99.90
2018-04-30T07:45:38.279Z,99.90
2018-04-30T07:48:18.098Z,99.90
2018-04-30T07:50:45.415Z,99.60
2018-04-30T07:53:11.606Z,99.40
2018-04-30T07:55:37.799Z,99.40
2018-04-30T07:58:04.065Z,99.00
2018-04-30T08:00:30.358Z,98.30
2018-04-30T08:02:57.053Z,98.30
2018-04-30T08:05:23.238Z,97.80
2018-04-30T08:07:49.645Z,98.10
2018-04-30T08:10:15.809Z,98.30
2018-04-30T08:12:42.118Z,98.30
2018-04-30T08:15:08.326Z,98.10
2018-04-30T08:17:34.489Z,98.10
2018-04-30T08:20:00.647Z,97.90
2018-04-30T08:22:26.986Z,97.50
2018-04-30T08:24:53.318Z,97.80
2018-04-30T08:27:19.466Z,97.90
2018-04-30T08:29:45.627Z,97.80
2018-04-30T08:32:11.784Z,97.80
2018-04-30T08:34:37.991Z,97.30
2018-04-30T08:37:04.502Z,97.40
2018-04-30T08:39:30.928Z,96.60
2018-04-30T08:41:57.297Z,96.80
2018-04-30T08:44:23.466Z,96.70
2018-04-30T08:46:49.619Z,96.70
2018-04-30T08:49:15.767Z,96.70
2018-04-30T08:51:41.930Z,96.60
2018-04-30T08:56:35.969Z,94.40
2018-04-30T08:59:02.159Z,94.20
2018-04-30T09:01:28.330Z,94.50
2018-04-30T09:03:54.500Z,95.50
2018-04-30T09:06:20.655Z,95.80
2018-04-30T09:08:46.799Z,95.80
2018-04-30T09:11:13.275Z,96.10
2018-04-30T09:13:40.566Z,95.60
2018-04-30T09:16:06.787Z,96.00
2018-04-30T09:18:33.387Z,96.00
2018-04-30T09:20:59.666Z,96.20
2018-04-30T09:25:53.706Z,95.60
2018-04-30T09:28:20.262Z,95.70
2018-04-30T09:30:46.413Z,94.60
2018-04-30T09:33:12.671Z,94.50
2018-04-30T09:35:39.994Z,94.50
2018-04-30T09:38:06.171Z,94.20
2018-04-30T09:40:32.358Z,94.40
2018-04-30T09:42:58.517Z,94.60
2018-04-30T09:45:24.678Z,95.00
2018-04-30T09:47:50.958Z,95.10
2018-04-30T09:50:17.117Z,95.20
2018-04-30T09:52:43.282Z,95.10
2018-04-30T09:55:09.506Z,95.20
2018-04-30T09:57:35.733Z,95.60
2018-04-30T10:00:01.911Z,95.00
2018-04-30T10:02:29.081Z,94.90
2018-04-30T10:04:55.270Z,95.00
2018-04-30T10:07:22.607Z,94.00
2018-04-30T10:09:48.713Z,94.50
2018-04-30T10:12:16.002Z,94.10
2018-04-30T10:14:42.191Z,94.30
2018-04-30T10:17:08.365Z,94.40
2018-04-30T10:19:34.535Z,94.50
2018-04-30T10:22:00.758Z,94.80
2018-04-30T10:24:26.926Z,94.90
2018-04-30T10:29:22.145Z,94.20
2018-04-30T10:31:48.354Z,94.70
2018-04-30T10:34:15.969Z,94.70
2018-04-30T10:36:42.132Z,94.60
2018-04-30T10:39:08.334Z,94.00
2018-04-30T10:41:34.490Z,93.40
2018-04-30T10:44:00.678Z,93.10
2018-04-30T10:46:26.857Z,92.70
2018-04-30T10:51:20.932Z,92.20
2018-04-30T10:53:47.136Z,92.60
2018-04-30T10:56:14.518Z,90.50
2018-04-30T10:58:40.708Z,91.00
2018-04-30T11:01:06.867Z,89.20
2018-04-30T11:03:33.051Z,88.20
2018-04-30T11:05:59.210Z,88.00
2018-04-30T11:08:25.362Z,88.00
2018-04-30T11:10:51.551Z,88.50
2018-04-30T11:13:18.822Z,87.10
2018-04-30T11:15:45.030Z,87.50
2018-04-30T11:18:11.195Z,88.00
2018-04-30T11:20:37.479Z,86.90
2018-04-30T11:23:03.695Z,88.00
2018-04-30T11:25:29.930Z,89.00
2018-04-30T11:27:56.117Z,89.30
2018-04-30T11:30:22.288Z,89.50
2018-04-30T11:32:48.493Z,91.10
2018-04-30T11:35:14.690Z,90.80
2018-04-30T11:37:41.977Z,87.20
2018-04-30T11:40:08.194Z,87.60
2018-04-30T11:42:34.390Z,87.50
2018-04-30T11:45:00.778Z,86.50
2018-04-30T11:47:28.061Z,82.30
2018-04-30T11:49:54.221Z,82.70
2018-04-30T11:52:20.434Z,82.70
2018-04-30T11:54:46.617Z,82.80
2018-04-30T11:57:12.773Z,82.70
2018-04-30T11:59:39.734Z,79.10
2018-04-30T12:02:05.915Z,77.10
2018-04-30T12:04:33.207Z,80.10
2018-04-30T12:45:29.914Z,82.70
2018-04-30T12:47:56.097Z,83.30
2018-04-30T12:50:22.282Z,83.00
2018-04-30T12:52:48.481Z,79.20
2018-04-30T12:55:15.774Z,76.60
2018-04-30T12:57:41.982Z,77.00
2018-04-30T13:00:08.179Z,76.70
2018-04-30T13:02:34.420Z,73.50
2018-04-30T13:05:00.562Z,67.20
2018-04-30T13:07:27.515Z,67.20
2018-04-30T13:09:53.738Z,67.40
2018-04-30T13:12:20.785Z,67.40
2018-04-30T13:14:47.007Z,67.50
2018-04-30T13:17:13.199Z,67.20
2018-04-30T13:19:39.440Z,67.00
2018-04-30T13:22:05.661Z,66.90
2018-04-30T13:24:31.865Z,67.60
2018-04-30T13:26:58.072Z,68.20
2018-04-30T13:29:24.281Z,68.00
2018-04-30T13:31:50.471Z,68.00
2018-04-30T13:34:16.660Z,71.50
2018-04-30T13:36:42.853Z,72.20
2018-04-30T13:39:09.014Z,73.70
2018-04-30T13:41:35.180Z,74.20
2018-04-30T13:44:01.351Z,76.00
2018-04-30T13:46:27.513Z,76.40
2018-04-30T13:48:53.682Z,76.40
2018-04-30T13:51:19.865Z,76.60
2018-04-30T13:53:47.126Z,76.70
2018-04-30T13:56:13.357Z,77.10
2018-04-30T13:58:39.538Z,80.00
2018-04-30T14:01:06.467Z,81.10
2018-04-30T14:03:33.734Z,82.20
2018-04-30T14:05:59.907Z,82.60
2018-04-30T14:08:27.471Z,76.20
2018-04-30T14:10:53.633Z,77.30
2018-04-30T14:13:19.823Z,77.30
2018-04-30T14:15:46.023Z,77.00
2018-04-30T14:18:12.262Z,76.80
2018-04-30T14:20:38.463Z,78.50
2018-04-30T14:23:04.644Z,80.20
2018-04-30T14:25:32.005Z,81.20
2018-04-30T14:27:58.213Z,82.50
2018-04-30T14:30:24.385Z,83.80
2018-04-30T14:32:50.566Z,84.10
2018-04-30T14:35:16.747Z,84.30
2018-04-30T14:37:42.918Z,84.20
2018-04-30T14:40:09.091Z,83.60
2018-04-30T14:42:35.271Z,83.40
2018-04-30T14:45:02.174Z,84.20
2018-04-30T14:47:28.315Z,84.60
2018-04-30T14:49:55.635Z,83.30
2018-04-30T14:52:21.900Z,84.40
2018-04-30T14:54:48.094Z,85.70
2018-04-30T14:57:14.282Z,85.20
2018-04-30T14:59:41.558Z,86.40
2018-04-30T15:02:08.133Z,87.50
2018-04-30T15:04:34.322Z,86.90
2018-04-30T15:07:00.498Z,87.10
2018-04-30T15:09:26.679Z,88.20
2018-04-30T15:11:53.968Z,88.10
2018-04-30T15:14:20.126Z,88.50
2018-04-30T15:16:46.278Z,88.70
2018-04-30T15:19:12.473Z,89.30
2018-04-30T15:21:38.626Z,89.40
2018-04-30T15:24:04.793Z,88.30
2018-04-30T15:26:32.173Z,89.10
2018-04-30T15:28:58.326Z,90.30
2018-04-30T15:31:24.498Z,89.50
2018-04-30T15:33:50.646Z,88.80
2018-04-30T15:36:16.825Z,88.90
2018-04-30T15:38:43.041Z,87.70
2018-04-30T15:41:09.206Z,85.80
2018-04-30T15:46:05.251Z,86.70
2018-04-30T15:48:31.530Z,87.80
2018-04-30T15:50:58.819Z,86.60
2018-04-30T15:53:25.010Z,87.80
2018-04-30T15:55:51.154Z,88.10
2018-04-30T15:58:17.334Z,88.30
2018-04-30T16:00:44.411Z,89.10
2018-04-30T16:03:10.567Z,88.80
2018-04-30T16:05:36.751Z,89.20
2018-04-30T16:08:03.309Z,89.50
2018-04-30T16:10:29.477Z,89.50
2018-04-30T16:12:55.734Z,89.20
2018-04-30T16:15:21.926Z,89.80
2018-04-30T16:17:49.286Z,88.70
2018-04-30T16:20:15.448Z,89.90
2018-04-30T16:22:41.638Z,90.10
2018-04-30T16:25:07.795Z,90.20
2018-04-30T16:27:33.978Z,90.60
2018-04-30T16:30:00.173Z,90.70
2018-04-30T16:32:27.334Z,90.70
2018-04-30T16:34:53.502Z,90.40
2018-04-30T16:37:19.798Z,90.70
2018-04-30T16:39:46.258Z,90.10
2018-04-30T16:42:12.454Z,90.00
2018-04-30T16:44:38.627Z,89.60
2018-04-30T16:47:05.693Z,90.00
2018-04-30T16:49:32.393Z,89.90
2018-04-30T16:51:59.668Z,89.70
2018-04-30T16:54:25.868Z,90.20
2018-04-30T16:56:52.043Z,90.50
2018-04-30T16:59:18.229Z,90.00
2018-04-30T17:01:44.511Z,90.20
2018-04-30T17:04:10.674Z,90.00
2018-04-30T17:06:38.326Z,90.30
2018-04-30T17:09:04.590Z,90.20
2018-04-30T17:11:30.781Z,90.30
2018-04-30T17:13:58.038Z,90.20
2018-04-30T17:16:24.210Z,90.70
2018-04-30T17:18:50.394Z,91.20
2018-04-30T17:21:16.854Z,91.10
2018-04-30T17:23:43.102Z,91.30
2018-04-30T17:26:09.686Z,91.60
2018-04-30T17:28:35.938Z,91.80
2018-04-30T17:31:02.428Z,92.50
2018-04-30T17:33:29.761Z,93.40
2018-04-30T17:35:58.088Z,93.50
2018-04-30T17:38:24.310Z,94.10
2018-04-30T17:40:50.642Z,94.20
2018-04-30T17:43:17.339Z,93.90
2018-04-30T17:45:43.601Z,94.00
2018-04-30T17:48:10.169Z,94.20
2018-04-30T17:50:36.367Z,94.50
2018-04-30T17:53:02.546Z,94.50
2018-04-30T17:55:29.831Z,94.10
2018-04-30T17:57:56.010Z,94.50
2018-04-30T18:02:50.094Z,94.30
2018-04-30T18:05:16.334Z,94.70
2018-04-30T18:07:44.334Z,94.80
2018-04-30T18:10:10.648Z,95.00
2018-04-30T18:12:38.121Z,94.60
2018-04-30T18:15:05.055Z,95.00
2018-04-30T18:17:31.271Z,95.00
2018-04-30T18:19:57.495Z,95.40
2018-04-30T18:22:24.251Z,95.30
2018-04-30T18:24:50.467Z,95.30
2018-04-30T18:27:16.827Z,95.30
2018-04-30T18:29:44.719Z,95.50
2018-04-30T18:32:10.878Z,95.80
2018-04-30T18:34:38.192Z,95.30
2018-04-30T18:37:04.359Z,95.70
2018-04-30T18:39:30.514Z,95.70
2018-04-30T18:41:56.702Z,95.80
2018-04-30T18:44:22.929Z,95.80
2018-04-30T18:46:49.062Z,96.00
2018-04-30T18:49:15.219Z,96.10
2018-04-30T18:51:41.382Z,96.30
2018-04-30T18:54:07.550Z,96.50
2018-04-30T18:56:33.704Z,96.50
2018-04-30T18:58:59.899Z,96.60
2018-04-30T19:01:26.134Z,96.80
2018-04-30T19:03:52.444Z,96.80
2018-04-30T19:06:18.642Z,96.80
2018-04-30T19:08:44.806Z,96.90
2018-04-30T19:11:11.078Z,96.90
2018-04-30T19:13:37.242Z,97.00
2018-04-30T19:16:03.422Z,96.80
2018-04-30T19:18:29.650Z,96.90
2018-04-30T19:20:55.815Z,97.10
2018-04-30T19:23:21.970Z,97.10
2018-04-30T19:25:49.255Z,96.80
2018-04-30T19:28:15.410Z,97.20
2018-04-30T19:30:41.566Z,97.20
2018-04-30T19:33:07.737Z,97.40
2018-04-30T19:35:33.913Z,97.40
2018-04-30T19:38:00.122Z,97.30
2018-04-30T19:40:26.326Z,97.60
2018-04-30T19:42:52.478Z,97.50
2018-04-30T19:45:18.666Z,97.50
2018-04-30T19:47:44.976Z,97.50
2018-04-30T19:50:11.297Z,97.40
2018-04-30T19:52:37.487Z,97.50
2018-04-30T19:55:04.843Z,96.90
2018-04-30T19:57:31.122Z,97.40
2018-04-30T19:59:57.398Z,97.70
2018-04-30T20:02:23.618Z,97.70
2018-04-30T20:04:49.776Z,97.60
2018-04-30T20:07:17.203Z,97.30
2018-04-30T20:09:47.573Z,97.70
2018-04-30T20:12:13.728Z,97.70
2018-04-30T20:14:41.107Z,97.30
2018-04-30T20:17:07.310Z,97.80
2018-04-30T20:19:33.727Z,97.80
2018-04-30T20:24:27.946Z,97.90
2018-04-30T20:26:54.275Z,97.80
2018-04-30T20:29:20.448Z,97.90
2018-04-30T20:31:46.685Z,97.90
2018-04-30T20:34:12.873Z,98.10
2018-04-30T20:36:39.040Z,98.00
2018-04-30T20:39:05.331Z,98.10
2018-04-30T20:41:31.495Z,98.00
2018-04-30T20:46:25.682Z,98.40
2018-04-30T20:48:51.838Z,98.60
2018-04-30T20:51:18.024Z,98.70
2018-04-30T20:53:44.174Z,98.60
2018-04-30T20:56:10.389Z,98.50
2018-04-30T20:58:36.663Z,98.40
2018-04-30T21:01:03.040Z,97.80
2018-04-30T21:03:29.216Z,96.80
2018-04-30T21:05:56.109Z,95.70
2018-04-30T21:08:22.289Z,95.60
2018-04-30T21:15:47.680Z,95.60
2018-04-30T21:18:14.957Z,95.30
2018-04-30T21:20:41.145Z,95.70
2018-04-30T21:23:08.577Z,95.20
2018-04-30T21:25:35.875Z,95.40
2018-04-30T21:28:02.182Z,95.90
2018-04-30T21:30:28.416Z,96.00
2018-04-30T21:32:54.587Z,95.90
2018-04-30T21:35:20.922Z,96.20
2018-04-30T21:37:47.147Z,96.30
2018-04-30T21:40:13.366Z,96.50
2018-04-30T21:42:39.556Z,96.60
2018-04-30T21:45:07.952Z,96.70
2018-04-30T21:47:34.218Z,96.60
2018-04-30T21:50:00.429Z,96.70
2018-04-30T21:52:26.775Z,97.00
2018-04-30T21:54:53.039Z,97.10
2018-04-30T21:57:20.363Z,96.70
2018-04-30T21:59:47.035Z,97.20
2018-04-30T22:02:14.214Z,97.40
2018-04-30T22:04:40.416Z,97.40
2018-04-30T22:07:06.729Z,97.70
2018-04-30T22:09:33.136Z,97.70
2018-04-30T22:11:59.309Z,97.70
2018-04-30T22:16:53.407Z,97.40
2018-04-30T22:19:19.553Z,98.10
2018-04-30T22:22:07.826Z,97.90
2018-04-30T22:24:34.119Z,98.00
2018-04-30T22:27:01.430Z,97.60
2018-04-30T22:29:27.599Z,98.10
2018-04-30T22:31:53.991Z,98.20
2018-04-30T22:34:20.170Z,98.20
2018-04-30T22:36:47.990Z,98.40
2018-04-30T22:39:14.796Z,98.40
2018-04-30T22:41:40.942Z,98.40
2018-04-30T22:44:07.110Z,98.50
2018-04-30T22:46:34.402Z,98.20
2018-04-30T22:49:00.577Z,98.60
2018-04-30T22:51:26.847Z,98.70
2018-04-30T22:53:53.064Z,98.80
2018-04-30T22:56:19.371Z,98.90
2018-04-30T22:58:45.865Z,99.00
2018-04-30T23:01:12.081Z,98.80
2018-04-30T23:03:38.434Z,98.80
2018-04-30T23:06:04.595Z,98.90
2018-04-30T23:08:30.844Z,99.00
2018-04-30T23:10:57.042Z,98.80
2018-04-30T23:13:23.260Z,98.70
2018-04-30T23:15:49.429Z,98.60
2018-04-30T23:18:15.628Z,98.60
2018-04-30T23:20:42.889Z,98.20
2018-04-30T23:23:09.234Z,98.80
2018-04-30T23:25:35.406Z,98.50
2018-04-30T23:28:01.866Z,98.70
2018-04-30T23:30:28.173Z,98.80
2018-04-30T23:32:54.540Z,98.80
2018-04-30T23:35:20.962Z,98.50
2018-04-30T23:37:47.218Z,97.90
2018-04-30T23:40:13.398Z,97.80
2018-04-30T23:42:40.683Z,97.10
2018-04-30T23:45:06.837Z,97.40
2018-04-30T23:47:33.026Z,97.50
2018-04-30T23:49:59.199Z,97.20
2018-04-30T23:52:25.353Z,97.70
2018-04-30T23:54:51.540Z,97.80
2018-04-30T23:57:17.998Z,97.20
2018-04-30T23:59:44.198Z,97.60
